Time;durP1;ratioP1;P1;durP2;ratioP2;P2;SDS_P1;SDS_P2;PMS_P1;PMS_P2;Temp;Humidity;BMP_temperature;BMP_pressure;BME280_temperature;BME280_humidity;BME280_pressure;Samples;Min_cycle;Max_cycle;Signal;HPM_P1;HPM_P2
2022/01/10 00:00:07;;;;;;;11.23;7.07;;;4.90;99.90;;;;;;5002579;28;20448;-86
2022/01/10 00:02:35;;;;;;;16.50;7.57;;;4.90;99.90;;;;;;5001588;28;20460;-82
2022/01/10 00:05:02;;;;;;;15.60;8.90;;;4.90;99.90;;;;;;5005680;28;20552;-83
2022/01/10 00:07:29;;;;;;;13.33;7.97;;;5.00;99.90;;;;;;5005426;28;20491;-84
2022/01/10 00:09:56;;;;;;;13.93;8.73;;;4.90;99.90;;;;;;5004488;28;20472;-83
2022/01/10 00:12:22;;;;;;;24.83;9.50;;;4.90;99.90;;;;;;5006313;28;20455;-83
2022/01/10 00:14:49;;;;;;;15.57;8.73;;;4.90;99.90;;;;;;5008049;28;20878;-84
2022/01/10 00:17:16;;;;;;;17.87;9.40;;;4.80;99.90;;;;;;5003648;28;20461;-84
2022/01/10 00:19:44;;;;;;;14.37;8.63;;;4.80;99.90;;;;;;4997363;28;20486;-83
2022/01/10 00:22:11;;;;;;;17.53;8.43;;;4.60;99.90;;;;;;4997108;28;20460;-84
2022/01/10 00:24:39;;;;;;;14.30;7.70;;;4.60;99.90;;;;;;4998079;28;20462;-84
2022/01/10 00:27:06;;;;;;;14.50;9.13;;;4.40;99.90;;;;;;5000625;28;20509;-82
2022/01/10 00:29:33;;;;;;;15.30;8.80;;;4.30;99.90;;;;;;5003464;28;20490;-84
2022/01/10 00:32:00;;;;;;;16.83;8.63;;;4.30;99.90;;;;;;5000718;28;20461;-84
2022/01/10 00:34:27;;;;;;;18.57;8.33;;;4.20;99.90;;;;;;5000377;28;20463;-83
2022/01/10 00:36:56;;;;;;;17.13;9.40;;;4.10;99.90;;;;;;5001298;28;20458;-84
2022/01/10 00:39:22;;;;;;;20.20;9.77;;;4.10;99.90;;;;;;5003868;28;20482;-84
2022/01/10 00:41:49;;;;;;;14.60;8.47;;;4.10;99.90;;;;;;5005939;28;20550;-83
2022/01/10 00:44:16;;;;;;;28.23;10.17;;;4.10;99.90;;;;;;5005263;28;20553;-84
2022/01/10 00:46:43;;;;;;;13.80;8.63;;;4.10;99.90;;;;;;5006012;28;20462;-84
2022/01/10 00:49:09;;;;;;;27.50;9.13;;;4.10;99.90;;;;;;5006104;28;20498;-83
2022/01/10 00:51:36;;;;;;;14.80;8.93;;;4.10;99.90;;;;;;5006855;28;20542;-84
2022/01/10 00:54:04;;;;;;;17.40;8.33;;;4.10;99.90;;;;;;5005052;28;20542;-82
2022/01/10 00:56:31;;;;;;;20.80;9.00;;;4.10;99.90;;;;;;5004267;28;20546;-82
2022/01/10 00:58:58;;;;;;;18.33;9.07;;;4.00;99.90;;;;;;5003446;28;20915;-82
2022/01/10 01:01:25;;;;;;;14.57;8.37;;;3.90;99.90;;;;;;5003221;28;20459;-82
2022/01/10 01:03:52;;;;;;;18.10;9.77;;;3.90;99.90;;;;;;5005702;28;20595;-82
2022/01/10 01:06:18;;;;;;;17.43;11.33;;;3.80;99.90;;;;;;5005207;28;20545;-83
2022/01/10 01:08:46;;;;;;;15.30;10.43;;;3.70;99.90;;;;;;5013140;28;20494;-83
2022/01/10 01:14:08;;;;;;;20.63;9.83;;;3.40;99.90;;;;;;5002690;28;20537;-83
2022/01/10 01:16:45;;;;;;;14.03;9.07;;;3.30;99.90;;;;;;5000748;28;20454;-83
2022/01/10 01:20:02;;;;;;;16.50;10.50;;;3.20;99.90;;;;;;4995878;28;20977;-83
2022/01/10 01:25:00;;;;;;;20.53;9.90;;;3.10;99.90;;;;;;5003423;28;20489;-82
2022/01/10 01:27:28;;;;;;;17.77;9.73;;;3.10;99.90;;;;;;5005019;28;20454;-82
2022/01/10 01:29:55;;;;;;;23.83;11.00;;;3.10;99.90;;;;;;5003001;28;20566;-82
2022/01/10 01:32:22;;;;;;;20.00;10.53;;;3.20;99.90;;;;;;5005487;28;20473;-82
2022/01/10 01:34:49;;;;;;;19.77;10.93;;;3.10;99.90;;;;;;5006586;28;20494;-82
2022/01/10 01:37:16;;;;;;;15.10;10.73;;;3.00;99.90;;;;;;5007174;28;20526;-83
2022/01/10 01:39:43;;;;;;;16.47;10.03;;;2.90;99.90;;;;;;5006869;28;20514;-82
2022/01/10 01:42:31;;;;;;;18.30;10.20;;;2.90;99.90;;;;;;5008702;28;20526;-83
2022/01/10 01:45:00;;;;;;;17.27;10.57;;;2.90;99.90;;;;;;5008978;28;20926;-83
2022/01/10 01:47:26;;;;;;;15.00;11.00;;;2.70;99.90;;;;;;5011671;28;20528;-84
2022/01/10 01:49:53;;;;;;;19.30;11.33;;;2.60;99.90;;;;;;5005531;28;20497;-83
2022/01/10 01:52:20;;;;;;;15.63;9.67;;;2.60;99.90;;;;;;5004314;28;20474;-84
2022/01/10 01:54:47;;;;;;;22.13;11.00;;;2.60;99.90;;;;;;5004386;28;20461;-84
2022/01/10 01:57:14;;;;;;;19.45;10.25;;;2.50;99.90;;;;;;4997691;28;20461;-84
2022/01/10 01:59:40;;;;;;;21.10;11.30;;;2.40;99.90;;;;;;5006393;28;20223;-84
2022/01/10 02:02:09;;;;;;;16.02;9.35;;;2.40;99.90;;;;;;5008550;28;20449;-84
2022/01/10 02:04:36;;;;;;;24.20;11.30;;;2.30;99.90;;;;;;5013422;28;20282;-84
2022/01/10 02:07:03;;;;;;;19.80;11.67;;;2.30;99.90;;;;;;5003074;28;21015;-83
2022/01/10 02:09:31;;;;;;;17.30;9.67;;;2.20;99.90;;;;;;5003056;28;20555;-84
2022/01/10 02:11:58;;;;;;;15.32;8.77;;;2.20;99.90;;;;;;5001786;28;20893;-84
2022/01/10 02:14:25;;;;;;;21.47;10.83;;;2.20;99.90;;;;;;5003263;28;20208;-84
2022/01/10 02:16:55;;;;;;;16.90;10.83;;;2.10;99.90;;;;;;5002862;28;20513;-83
2022/01/10 02:19:24;;;;;;;20.83;10.40;;;2.10;99.90;;;;;;5004387;28;20474;-83
2022/01/10 02:21:52;;;;;;;16.67;10.07;;;2.00;99.90;;;;;;5005445;28;20203;-82
2022/01/10 02:24:20;;;;;;;19.08;10.45;;;2.00;99.90;;;;;;5006558;28;20215;-83
2022/01/10 02:26:48;;;;;;;26.13;10.43;;;2.10;99.90;;;;;;5006195;28;20235;-83
2022/01/10 02:29:16;;;;;;;17.08;9.73;;;2.00;99.90;;;;;;5004455;28;20494;-82
2022/01/10 02:31:44;;;;;;;13.38;9.23;;;1.90;99.90;;;;;;5005390;28;20211;-81
2022/01/10 02:34:15;;;;;;;16.80;9.73;;;1.90;99.90;;;;;;5006963;28;20207;-82
2022/01/10 02:36:42;;;;;;;13.63;10.75;;;1.80;99.90;;;;;;4987936;28;20459;-83
2022/01/10 02:39:11;;;;;;;16.10;9.97;;;1.80;99.90;;;;;;5004995;28;20238;-83
2022/01/10 02:41:40;;;;;;;19.67;10.23;;;1.70;99.90;;;;;;5007188;28;20509;-83
2022/01/10 02:44:09;;;;;;;20.57;10.37;;;1.80;99.90;;;;;;5004054;28;20213;-83
2022/01/10 02:46:37;;;;;;;17.03;10.27;;;1.70;99.90;;;;;;5004758;28;20463;-83
2022/01/10 02:49:09;;;;;;;18.27;10.40;;;1.70;99.90;;;;;;5003044;28;20982;-83
2022/01/10 02:51:36;;;;;;;24.98;11.93;;;1.60;99.90;;;;;;5004741;28;20199;-82
2022/01/10 02:54:03;;;;;;;16.43;10.20;;;1.60;99.90;;;;;;5005855;28;20284;-82
2022/01/10 02:56:31;;;;;;;16.83;9.73;;;1.60;99.90;;;;;;5002990;28;20455;-83
2022/01/10 02:58:58;;;;;;;25.70;11.30;;;1.50;99.90;;;;;;5004645;28;20216;-83
2022/01/10 03:01:25;;;;;;;18.60;10.98;;;1.50;99.90;;;;;;5002931;28;20550;-82
2022/01/10 03:03:52;;;;;;;22.05;13.05;;;1.50;99.90;;;;;;5004806;28;20207;-82
2022/01/10 03:06:19;;;;;;;13.70;9.73;;;1.50;99.90;;;;;;5003640;28;20207;-82
2022/01/10 03:08:45;;;;;;;20.23;10.85;;;1.40;99.90;;;;;;5000144;28;20618;-81
2022/01/10 03:11:12;;;;;;;21.13;11.30;;;1.40;99.90;;;;;;4997876;28;20206;-81
2022/01/10 03:13:40;;;;;;;18.40;10.77;;;1.30;99.90;;;;;;4999381;28;20214;-81
2022/01/10 03:16:07;;;;;;;18.42;11.40;;;1.30;99.90;;;;;;4999016;28;20200;-81
2022/01/10 03:18:34;;;;;;;21.60;11.40;;;1.30;99.90;;;;;;4998768;28;20224;-81
2022/01/10 03:21:00;;;;;;;16.90;10.65;;;1.30;99.90;;;;;;4997572;28;20635;-82
2022/01/10 03:23:27;;;;;;;15.00;10.03;;;1.30;99.90;;;;;;5001052;28;20282;-81
2022/01/10 03:25:54;;;;;;;18.65;10.20;;;1.30;99.90;;;;;;5000566;28;20460;-81
2022/01/10 03:28:21;;;;;;;15.13;9.10;;;1.30;99.90;;;;;;5000291;28;20246;-82
2022/01/10 03:30:49;;;;;;;18.70;10.80;;;1.20;99.90;;;;;;4998845;28;20200;-83
2022/01/10 03:33:16;;;;;;;18.05;10.35;;;1.20;99.90;;;;;;4998796;28;20211;-81
2022/01/10 03:35:43;;;;;;;20.05;10.35;;;1.20;99.90;;;;;;4999320;28;20863;-82
2022/01/10 03:38:09;;;;;;;23.02;11.60;;;1.20;99.90;;;;;;4999865;28;20233;-83
2022/01/10 03:40:36;;;;;;;22.65;11.07;;;1.20;99.90;;;;;;5002810;28;20275;-82
2022/01/10 03:43:04;;;;;;;22.05;11.13;;;1.20;99.90;;;;;;5005233;28;20214;-82
2022/01/10 03:45:32;;;;;;;21.00;9.80;;;1.20;99.90;;;;;;5007247;28;20204;-82
2022/01/10 03:48:00;;;;;;;18.10;10.02;;;1.20;99.90;;;;;;5006925;28;20208;-82
2022/01/10 03:50:27;;;;;;;20.15;10.82;;;1.10;99.90;;;;;;5005068;28;20231;-81
2022/01/10 03:52:54;;;;;;;22.27;11.38;;;1.10;99.90;;;;;;5007362;28;20199;-82
2022/01/10 03:55:20;;;;;;;18.25;9.57;;;1.10;99.90;;;;;;5007911;28;20229;-82
2022/01/10 03:57:47;;;;;;;17.45;10.32;;;1.00;99.90;;;;;;5007194;28;20207;-83
2022/01/10 04:00:15;;;;;;;19.20;11.13;;;1.00;99.90;;;;;;5008776;28;20203;-83
2022/01/10 04:02:45;;;;;;;21.67;12.20;;;1.00;99.90;;;;;;5003386;28;20290;-83
2022/01/10 04:05:13;;;;;;;18.17;10.90;;;1.00;99.90;;;;;;5010670;28;20192;-83
2022/01/10 04:07:40;;;;;;;19.50;10.30;;;1.00;99.90;;;;;;5007923;28;20295;-80
2022/01/10 04:10:07;;;;;;;16.20;10.80;;;1.00;99.90;;;;;;5010661;28;20223;-80
2022/01/10 04:12:34;;;;;;;17.40;9.52;;;1.00;99.90;;;;;;5008452;28;20234;-82
2022/01/10 04:15:01;;;;;;;20.13;10.30;;;1.00;99.90;;;;;;5003306;28;20206;-83
2022/01/10 04:17:28;;;;;;;25.75;11.55;;;0.90;99.90;;;;;;5002441;28;20216;-84
2022/01/10 04:19:54;;;;;;;18.48;10.50;;;0.90;99.90;;;;;;5002781;28;20223;-84
2022/01/10 04:22:23;;;;;;;26.08;10.23;;;0.90;99.90;;;;;;5002107;28;20203;-84
2022/01/10 04:24:49;;;;;;;19.90;11.23;;;0.90;99.90;;;;;;5007165;28;20203;-83
2022/01/10 04:27:16;;;;;;;17.70;10.45;;;0.90;99.90;;;;;;5006881;28;20236;-82
2022/01/10 04:29:43;;;;;;;27.60;11.55;;;0.90;99.90;;;;;;5006693;28;20249;-83
2022/01/10 04:32:12;;;;;;;14.75;9.65;;;0.80;99.90;;;;;;5006188;28;20290;-83
2022/01/10 04:34:38;;;;;;;16.35;9.52;;;0.90;99.90;;;;;;5007846;28;20207;-83
2022/01/10 04:37:06;;;;;;;24.25;11.55;;;0.90;99.90;;;;;;5006010;28;20214;-84
2022/01/10 04:39:34;;;;;;;20.30;11.68;;;0.90;99.90;;;;;;5005175;28;20230;-83
2022/01/10 04:42:02;;;;;;;18.45;11.63;;;0.80;99.90;;;;;;5003483;28;20214;-83
2022/01/10 04:44:28;;;;;;;22.63;11.15;;;0.80;99.90;;;;;;5004253;28;20294;-82
2022/01/10 04:46:55;;;;;;;21.38;11.40;;;0.80;99.90;;;;;;5007212;28;20230;-83
2022/01/10 04:49:24;;;;;;;21.40;11.18;;;0.80;99.90;;;;;;5008215;28;20229;-83
2022/01/10 04:51:51;;;;;;;16.27;10.60;;;0.80;99.90;;;;;;5003064;28;20222;-82
2022/01/10 04:54:18;;;;;;;21.83;11.60;;;0.70;99.90;;;;;;5006586;28;20213;-83
2022/01/10 04:56:47;;;;;;;20.20;12.25;;;0.70;99.90;;;;;;4999437;28;20203;-82
2022/01/10 04:59:14;;;;;;;22.85;12.00;;;0.60;99.90;;;;;;4984517;28;20225;-83
2022/01/10 05:01:41;;;;;;;17.73;10.60;;;0.70;99.90;;;;;;4998667;28;20211;-83
2022/01/10 05:04:09;;;;;;;23.73;12.00;;;0.60;99.90;;;;;;4999947;28;20203;-84
2022/01/10 05:06:36;;;;;;;20.23;11.50;;;0.60;99.90;;;;;;5000086;28;20221;-84
2022/01/10 05:09:03;;;;;;;25.50;11.93;;;0.60;99.90;;;;;;4999227;28;20311;-84
2022/01/10 05:11:32;;;;;;;22.80;11.10;;;0.60;99.90;;;;;;4989745;28;20214;-82
2022/01/10 05:14:00;;;;;;;18.77;11.48;;;0.60;99.90;;;;;;4999667;28;20309;-83
2022/01/10 05:16:27;;;;;;;19.10;12.75;;;0.60;99.90;;;;;;5000298;28;20207;-84
2022/01/10 05:18:54;;;;;;;20.27;12.02;;;0.60;99.90;;;;;;4999554;28;20221;-84
2022/01/10 05:21:21;;;;;;;18.98;11.85;;;0.50;99.90;;;;;;4996430;28;20207;-84
2022/01/10 05:23:48;;;;;;;18.27;10.82;;;0.60;99.90;;;;;;4999780;28;20211;-83
2022/01/10 05:26:15;;;;;;;19.92;10.82;;;0.60;99.90;;;;;;4999571;28;20210;-83
2022/01/10 05:28:42;;;;;;;29.55;12.77;;;0.60;99.90;;;;;;5002595;28;20224;-82
2022/01/10 05:31:10;;;;;;;21.83;12.38;;;0.60;99.90;;;;;;5002506;28;20224;-82
2022/01/10 05:33:37;;;;;;;21.45;11.02;;;0.50;99.90;;;;;;5004648;28;20277;-83
2022/01/10 05:36:04;;;;;;;24.65;13.50;;;0.60;99.90;;;;;;5004321;28;20284;-82
2022/01/10 05:38:31;;;;;;;22.55;12.93;;;0.50;99.90;;;;;;5005425;28;20226;-82
2022/01/10 05:40:57;;;;;;;23.50;13.02;;;0.50;99.90;;;;;;5004576;28;20850;-82
2022/01/10 05:43:24;;;;;;;21.83;12.55;;;0.50;99.90;;;;;;5005873;28;20268;-83
2022/01/10 05:45:51;;;;;;;19.58;11.40;;;0.50;99.90;;;;;;5002064;28;20209;-82
2022/01/10 05:48:25;;;;;;;32.85;14.02;;;0.50;99.90;;;;;;5002079;28;20294;-84
2022/01/10 05:50:52;;;;;;;21.40;12.25;;;0.50;99.90;;;;;;4999121;28;20233;-83
2022/01/10 05:53:19;;;;;;;22.83;12.75;;;0.50;99.90;;;;;;5000380;28;20262;-83
2022/01/10 05:55:46;;;;;;;21.73;11.07;;;0.40;99.90;;;;;;5000079;28;20218;-84
2022/01/10 05:58:13;;;;;;;20.65;12.32;;;0.40;99.90;;;;;;4997775;28;20745;-83
2022/01/10 06:00:40;;;;;;;19.73;11.50;;;0.40;99.90;;;;;;4998450;28;20202;-83
2022/01/10 06:03:07;;;;;;;18.85;12.07;;;0.40;99.90;;;;;;4998058;28;20212;-83
2022/01/10 06:05:35;;;;;;;21.17;11.27;;;0.40;99.90;;;;;;4998857;28;20232;-83
2022/01/10 06:08:06;;;;;;;23.95;13.73;;;0.40;99.90;;;;;;4998206;28;20452;-80
2022/01/10 06:10:33;;;;;;;5.47;2.30;;;0.40;99.90;;;;;;4994594;28;20246;-77
2022/01/10 06:13:00;;;;;;;11.07;7.73;;;3.20;99.90;;;;;;4996278;28;20676;-80
2022/01/10 06:15:27;;;;;;;23.20;13.90;;;5.70;99.90;;;;;;4999642;28;20459;-81
2022/01/10 06:17:54;;;;;;;25.13;14.23;;;5.50;99.90;;;;;;4999033;28;20801;-80
2022/01/10 06:20:21;;;;;;;22.40;13.73;;;4.40;99.90;;;;;;5000376;28;20454;-81
2022/01/10 06:22:49;;;;;;;27.93;14.67;;;3.70;99.90;;;;;;5004431;28;20485;-81
2022/01/10 06:25:19;;;;;;;15.80;11.70;;;3.20;99.90;;;;;;5003997;28;20787;-81
2022/01/10 06:27:46;;;;;;;22.30;11.70;;;2.80;99.90;;;;;;5001338;28;20458;-84
2022/01/10 06:30:13;;;;;;;21.20;13.50;;;2.50;99.90;;;;;;4982222;28;20493;-83
2022/01/10 06:32:40;;;;;;;18.57;11.93;;;2.20;99.90;;;;;;4997078;28;20461;-82
2022/01/10 06:35:08;;;;;;;17.85;12.20;;;1.90;99.90;;;;;;5004023;28;20462;-83
2022/01/10 06:37:35;;;;;;;19.73;10.60;;;1.70;99.90;;;;;;5001343;28;20286;-84
2022/01/10 06:40:05;;;;;;;18.42;12.55;;;1.60;99.90;;;;;;5006387;28;20475;-83
2022/01/10 06:42:32;;;;;;;20.20;12.27;;;1.40;99.90;;;;;;5002968;28;20632;-82
2022/01/10 06:44:58;;;;;;;17.95;11.43;;;1.30;99.90;;;;;;5005385;28;20450;-83
2022/01/10 06:47:25;;;;;;;21.98;11.80;;;1.20;99.90;;;;;;5005146;28;20207;-82
2022/01/10 06:49:52;;;;;;;20.85;12.10;;;1.20;99.90;;;;;;4999891;28;20239;-84
2022/01/10 06:52:19;;;;;;;20.48;12.45;;;1.10;99.90;;;;;;4999605;28;20556;-82
2022/01/10 06:54:46;;;;;;;25.98;13.98;;;1.00;99.90;;;;;;5005948;28;20207;-82
2022/01/10 06:57:14;;;;;;;20.20;13.02;;;1.00;99.90;;;;;;5006869;28;20271;-82
2022/01/10 06:59:41;;;;;;;24.17;13.40;;;1.00;99.90;;;;;;5003613;28;20247;-83
2022/01/10 07:02:07;;;;;;;18.33;13.70;;;1.00;99.90;;;;;;5002613;28;20452;-81
2022/01/10 07:04:34;;;;;;;22.45;12.45;;;1.00;99.90;;;;;;5006761;28;20275;-81
2022/01/10 07:07:01;;;;;;;23.27;13.45;;;1.00;99.90;;;;;;5006974;28;20269;-81
2022/01/10 07:09:28;;;;;;;19.92;12.63;;;1.00;99.90;;;;;;5008490;28;20246;-83
2022/01/10 07:11:55;;;;;;;24.60;13.68;;;1.00;99.90;;;;;;5010467;28;20204;-81
2022/01/10 07:14:23;;;;;;;24.42;14.07;;;1.00;99.90;;;;;;5008603;28;20598;-82
2022/01/10 07:16:50;;;;;;;28.40;14.95;;;1.00;99.90;;;;;;5001480;28;20212;-83
2022/01/10 07:19:17;;;;;;;21.33;13.40;;;1.00;99.90;;;;;;5003419;28;20330;-82
2022/01/10 07:21:44;;;;;;;27.45;14.00;;;1.00;99.90;;;;;;4993922;28;20223;-83
2022/01/10 07:24:11;;;;;;;24.98;14.63;;;1.00;99.90;;;;;;4995310;28;20274;-82
2022/01/10 07:26:39;;;;;;;23.73;14.50;;;1.00;99.90;;;;;;5002050;28;20203;-83
2022/01/10 07:29:08;;;;;;;22.75;13.27;;;1.00;99.90;;;;;;5001430;28;20225;-83
2022/01/10 07:31:36;;;;;;;22.70;14.15;;;1.00;99.90;;;;;;5001201;28;20232;-83
2022/01/10 07:34:03;;;;;;;22.33;14.45;;;1.00;99.90;;;;;;5003498;28;20206;-83
2022/01/10 07:36:30;;;;;;;25.95;14.63;;;1.00;99.90;;;;;;5004914;28;20266;-83
2022/01/10 07:41:38;;;;;;;23.55;14.18;;;0.90;99.90;;;;;;4994245;28;20225;-84
2022/01/10 07:44:06;;;;;;;19.40;12.60;;;1.00;99.90;;;;;;4992733;28;20211;-82
2022/01/10 07:46:32;;;;;;;25.65;14.80;;;0.90;99.90;;;;;;4995898;28;20207;-83
2022/01/10 07:49:01;;;;;;;24.40;14.43;;;0.90;99.90;;;;;;4989667;28;20297;-82
2022/01/10 07:51:28;;;;;;;23.98;15.48;;;0.90;99.90;;;;;;4968960;28;20222;-82
2022/01/10 07:54:01;;;;;;;19.35;12.57;;;0.90;99.90;;;;;;4971657;28;20200;-82
2022/01/10 07:56:28;;;;;;;25.30;14.40;;;0.90;99.90;;;;;;4978979;28;20307;-83
2022/01/10 07:58:56;;;;;;;20.20;13.50;;;0.90;99.90;;;;;;4974740;28;20214;-83
2022/01/10 08:01:24;;;;;;;32.58;16.05;;;0.90;99.90;;;;;;4974352;28;20312;-83
2022/01/10 08:03:52;;;;;;;22.48;15.55;;;1.00;99.90;;;;;;4975837;28;20554;-81
2022/01/10 08:06:29;;;;;;;27.33;14.65;;;1.00;99.90;;;;;;4975155;28;20236;-81
2022/01/10 08:08:56;;;;;;;26.65;13.23;;;1.00;99.90;;;;;;4974671;28;20668;-80
2022/01/10 08:11:26;;;;;;;26.13;15.60;;;1.10;99.90;;;;;;4969122;28;20224;-82
2022/01/10 08:13:53;;;;;;;29.35;14.45;;;1.10;99.90;;;;;;4977342;28;20236;-80
2022/01/10 08:16:20;;;;;;;25.48;14.38;;;1.10;99.90;;;;;;4975150;28;20208;-81
2022/01/10 08:18:47;;;;;;;34.00;16.30;;;1.10;99.90;;;;;;4974711;28;20216;-81
2022/01/10 08:21:14;;;;;;;22.42;13.90;;;1.20;99.90;;;;;;4973217;28;20226;-81
2022/01/10 08:23:42;;;;;;;26.60;15.70;;;1.30;99.90;;;;;;4975482;28;21680;-82
2022/01/10 08:26:09;;;;;;;34.45;17.23;;;1.40;99.90;;;;;;4973549;28;20784;-82
2022/01/10 08:28:36;;;;;;;28.35;16.52;;;1.50;99.90;;;;;;4977112;28;20215;-82
2022/01/10 08:31:03;;;;;;;26.42;15.75;;;1.60;99.90;;;;;;4977094;28;20228;-81
2022/01/10 08:33:30;;;;;;;30.75;16.40;;;1.70;99.90;;;;;;4976844;28;20211;-83
2022/01/10 08:35:58;;;;;;;30.67;16.02;;;1.80;99.90;;;;;;4979393;28;20215;-81
2022/01/10 08:38:24;;;;;;;25.58;16.35;;;1.80;99.90;;;;;;4977447;28;20271;-83
2022/01/10 08:40:53;;;;;;;33.73;14.83;;;1.80;99.90;;;;;;4965755;28;20271;-81
2022/01/10 08:43:19;;;;;;;31.90;15.17;;;1.80;99.90;;;;;;4971716;28;20992;-82
2022/01/10 08:45:46;;;;;;;27.92;15.57;;;1.80;99.90;;;;;;4979193;28;20458;-82
2022/01/10 08:48:13;;;;;;;23.23;14.40;;;1.90;99.90;;;;;;4982242;28;20214;-81
2022/01/10 08:50:40;;;;;;;29.70;15.90;;;1.90;99.90;;;;;;4969454;28;20481;-80
2022/01/10 08:53:10;;;;;;;20.75;15.38;;;1.80;99.90;;;;;;4974953;28;20211;-80
2022/01/10 08:55:38;;;;;;;28.83;15.00;;;1.90;99.90;;;;;;4969343;28;20207;-81
2022/01/10 08:58:06;;;;;;;22.57;14.20;;;1.90;99.90;;;;;;4972008;28;20466;-81
2022/01/10 09:00:34;;;;;;;28.07;15.20;;;1.90;99.90;;;;;;4968692;28;20480;-81
2022/01/10 09:03:01;;;;;;;22.00;13.90;;;1.90;99.90;;;;;;4964932;28;20456;-82
2022/01/10 09:05:29;;;;;;;23.70;14.90;;;2.00;99.90;;;;;;4959102;29;20305;-80
2022/01/10 09:07:58;;;;;;;22.92;15.15;;;2.00;99.90;;;;;;4975354;28;20231;-82
2022/01/10 09:10:26;;;;;;;23.80;16.03;;;2.10;99.90;;;;;;4995909;28;20754;-81
2022/01/10 09:13:02;;;;;;;24.40;15.35;;;2.10;99.90;;;;;;4978771;28;21028;-81
2022/01/10 09:15:30;;;;;;;24.67;15.32;;;2.20;99.90;;;;;;4983229;28;20675;-81
2022/01/10 09:17:57;;;;;;;26.10;15.27;;;2.30;99.90;;;;;;4975512;28;20295;-81
2022/01/10 09:20:24;;;;;;;24.63;14.90;;;2.40;99.90;;;;;;4976491;28;20471;-82
2022/01/10 09:22:51;;;;;;;25.65;15.10;;;2.40;99.90;;;;;;4972184;28;21098;-82
2022/01/10 09:25:18;;;;;;;30.57;17.13;;;2.50;99.90;;;;;;4982304;28;20675;-82
2022/01/10 09:27:44;;;;;;;29.45;17.17;;;2.50;99.90;;;;;;4980693;28;20474;-81
2022/01/10 09:30:12;;;;;;;26.58;14.30;;;2.50;99.90;;;;;;4974192;28;20662;-83
2022/01/10 09:32:41;;;;;;;27.80;15.40;;;2.60;99.90;;;;;;4976552;28;20211;-81
2022/01/10 09:35:09;;;;;;;23.37;15.97;;;2.60;99.90;;;;;;4978762;28;20982;-81
2022/01/10 09:37:36;;;;;;;25.50;13.77;;;2.60;99.90;;;;;;4977194;28;20452;-81
2022/01/10 09:40:03;;;;;;;24.87;15.07;;;2.70;99.90;;;;;;4982586;28;20490;-82
2022/01/10 09:42:33;;;;;;;21.33;13.37;;;2.70;99.90;;;;;;4971142;28;20444;-81
2022/01/10 09:45:00;;;;;;;31.33;15.60;;;2.80;99.90;;;;;;4971896;28;20456;-81
2022/01/10 09:47:27;;;;;;;26.90;14.80;;;2.90;99.90;;;;;;4974206;28;20431;-81
2022/01/10 09:49:55;;;;;;;24.53;14.60;;;2.80;99.90;;;;;;4980907;28;20485;-82
2022/01/10 09:52:25;;;;;;;34.13;17.10;;;2.90;99.90;;;;;;4979161;28;20494;-81
2022/01/10 09:54:55;;;;;;;30.43;16.57;;;2.90;99.90;;;;;;4968201;28;21028;-81
2022/01/10 09:57:22;;;;;;;22.10;14.50;;;2.90;99.90;;;;;;4986327;28;20516;-82
2022/01/10 09:59:49;;;;;;;27.20;15.17;;;3.00;99.90;;;;;;4984717;28;20993;-83
2022/01/10 10:02:17;;;;;;;37.33;18.27;;;3.10;99.90;;;;;;4981770;28;20506;-80
2022/01/10 10:04:44;;;;;;;39.87;20.53;;;3.20;99.90;;;;;;4983312;28;20482;-81
2022/01/10 10:07:13;;;;;;;39.23;19.70;;;3.30;99.90;;;;;;4983705;28;20541;-81
2022/01/10 10:09:40;;;;;;;44.03;20.10;;;3.40;99.90;;;;;;4978425;28;20522;-81
2022/01/10 10:12:07;;;;;;;33.33;20.13;;;3.50;99.90;;;;;;4977777;28;21035;-81
2022/01/10 10:14:34;;;;;;;30.13;17.50;;;3.60;99.90;;;;;;4983651;28;20452;-82
2022/01/10 10:17:08;;;;;;;43.30;20.47;;;3.70;99.90;;;;;;4985700;28;20532;-81
2022/01/10 10:19:35;;;;;;;34.27;18.47;;;3.60;99.90;;;;;;4975481;28;20464;-80
2022/01/10 10:22:02;;;;;;;41.27;20.60;;;3.70;99.90;;;;;;4976418;28;20456;-84
2022/01/10 10:24:30;;;;;;;36.57;18.73;;;3.80;99.90;;;;;;4975494;28;20466;-84
2022/01/10 10:26:59;;;;;;;42.00;19.57;;;3.90;99.90;;;;;;4976788;28;20454;-81
2022/01/10 10:29:25;;;;;;;41.53;17.63;;;3.90;99.90;;;;;;4971811;28;20477;-80
2022/01/10 10:31:55;;;;;;;42.47;19.97;;;3.80;99.90;;;;;;4981083;28;20511;-81
2022/01/10 10:34:24;;;;;;;38.87;17.73;;;3.90;99.90;;;;;;4963586;28;20464;-82
2022/01/10 10:37:02;;;;;;;40.50;19.43;;;3.90;99.90;;;;;;4962138;29;20840;-82
2022/01/10 10:39:31;;;;;;;30.90;16.93;;;4.00;99.90;;;;;;4960057;28;20508;-82
2022/01/10 10:42:01;;;;;;;39.57;19.30;;;4.10;99.90;;;;;;4971467;28;20945;-82
2022/01/10 10:44:28;;;;;;;33.73;17.63;;;4.20;99.90;;;;;;4976092;28;20862;-80
2022/01/10 10:46:56;;;;;;;31.53;17.60;;;4.30;99.90;;;;;;4963164;28;20463;-83
2022/01/10 10:49:33;;;;;;;36.70;17.67;;;4.40;99.90;;;;;;4974728;28;20426;-83
2022/01/10 10:52:01;;;;;;;28.00;17.37;;;4.70;99.90;;;;;;4971539;28;20863;-80
2022/01/10 10:54:32;;;;;;;26.73;15.20;;;4.90;99.90;;;;;;4976987;28;20453;-83
2022/01/10 10:57:00;;;;;;;36.50;17.97;;;5.10;99.90;;;;;;4976239;28;20495;-84
2022/01/10 10:59:30;;;;;;;36.67;17.90;;;5.10;99.90;;;;;;4972874;28;20494;-82
2022/01/10 11:01:58;;;;;;;35.37;16.17;;;5.00;99.90;;;;;;4974238;28;20512;-84
2022/01/10 11:04:25;;;;;;;26.70;15.47;;;5.10;99.90;;;;;;4968917;28;20916;-82
2022/01/10 11:06:53;;;;;;;29.67;16.87;;;5.20;99.90;;;;;;4975752;28;20792;-82
2022/01/10 11:09:21;;;;;;;30.03;14.40;;;5.30;99.90;;;;;;4964859;28;20460;-81
2022/01/10 11:11:50;;;;;;;32.10;16.73;;;5.30;99.90;;;;;;4969612;28;20488;-82
2022/01/10 11:14:22;;;;;;;39.10;16.30;;;5.30;99.90;;;;;;4970965;28;20452;-83
2022/01/10 11:16:50;;;;;;;28.50;15.70;;;5.50;99.90;;;;;;4979500;28;20449;-83
2022/01/10 11:19:19;;;;;;;24.20;14.20;;;5.60;99.90;;;;;;4970574;28;20497;-82
2022/01/10 11:21:52;;;;;;;25.97;13.83;;;5.90;99.90;;;;;;4960020;28;20459;-83
2022/01/10 11:24:43;;;;;;;24.67;13.90;;;6.30;99.90;;;;;;4961623;28;20459;-83
2022/01/10 11:27:31;;;;;;;10.50;3.43;;;6.90;99.90;;;;;;4972159;28;20465;-82
2022/01/10 11:29:59;;;;;;;21.97;12.20;;;9.60;99.90;;;;;;4981605;28;20584;-82
2022/01/10 11:32:52;;;;;;;25.67;12.07;;;11.20;99.90;;;;;;4975541;28;20471;-83
2022/01/10 11:35:19;;;;;;;19.80;10.00;;;12.90;99.90;;;;;;4971096;28;20210;-77
2022/01/10 11:37:47;;;;;;;22.73;10.93;;;14.70;99.90;;;;;;4954710;28;20462;-78
2022/01/10 11:40:16;;;;;;;20.53;9.60;;;16.30;99.90;;;;;;4965084;28;20547;-79
2022/01/10 11:42:54;;;;;;;16.60;9.80;;;16.30;99.90;;;;;;4963651;28;20458;-77
2022/01/10 11:45:21;;;;;;;21.73;11.47;;;16.80;99.90;;;;;;4972120;28;20439;-77
2022/01/10 11:48:14;;;;;;;18.30;9.70;;;17.70;98.60;;;;;;4960527;28;20491;-76
2022/01/10 11:50:43;;;;;;;16.17;9.90;;;18.10;97.10;;;;;;4960307;28;21031;-77
2022/01/10 11:53:10;;;;;;;18.30;10.03;;;18.20;94.90;;;;;;4957194;28;20476;-76
2022/01/10 11:55:44;;;;;;;14.00;9.50;;;17.00;92.80;;;;;;4961093;28;20466;-79
2022/01/10 11:58:17;;;;;;;16.03;8.53;;;15.90;96.20;;;;;;4975533;28;20831;-79
2022/01/10 12:00:44;;;;;;;16.50;9.30;;;15.10;99.90;;;;;;4975483;28;20486;-80
2022/01/10 12:03:12;;;;;;;18.13;9.27;;;14.20;99.90;;;;;;4981645;28;20466;-80
2022/01/10 12:05:39;;;;;;;18.97;9.83;;;14.90;99.90;;;;;;4972037;28;20459;-79
2022/01/10 12:08:07;;;;;;;14.47;8.90;;;16.30;99.90;;;;;;4973334;28;20470;-79
2022/01/10 12:10:34;;;;;;;15.23;8.30;;;17.90;97.20;;;;;;4984691;28;20483;-80
2022/01/10 12:13:04;;;;;;;16.03;8.40;;;19.50;93.20;;;;;;4982921;28;20498;-80
2022/01/10 12:15:33;;;;;;;16.83;8.83;;;20.60;86.60;;;;;;4976562;28;20971;-78
2022/01/10 12:18:01;;;;;;;13.03;7.30;;;21.20;79.90;;;;;;4982582;28;20536;-79
2022/01/10 12:20:28;;;;;;;13.73;7.60;;;22.00;76.40;;;;;;4978755;28;20479;-79
2022/01/10 12:22:55;;;;;;;11.87;7.53;;;22.40;72.90;;;;;;4979801;28;20457;-78
2022/01/10 12:25:22;;;;;;;14.60;7.63;;;21.10;69.10;;;;;;4980242;28;20846;-80
2022/01/10 12:27:51;;;;;;;16.33;7.70;;;19.50;71.20;;;;;;4962796;28;20463;-79
2022/01/10 12:30:20;;;;;;;16.50;8.60;;;17.20;73.00;;;;;;4974631;28;20830;-80
2022/01/10 12:32:48;;;;;;;14.63;7.33;;;15.40;77.60;;;;;;4973018;28;20498;-81
2022/01/10 12:35:16;;;;;;;15.63;7.90;;;15.10;81.00;;;;;;4984034;28;20833;-79
2022/01/10 12:37:43;;;;;;;17.77;6.60;;;14.20;83.70;;;;;;4982874;28;20452;-79
2022/01/10 12:40:13;;;;;;;12.17;6.33;;;13.40;89.20;;;;;;4965984;28;20494;-77
2022/01/10 12:42:40;;;;;;;12.00;6.53;;;12.20;97.90;;;;;;4975200;28;20974;-77
2022/01/10 12:45:10;;;;;;;16.67;7.33;;;11.60;99.90;;;;;;4979212;28;20522;-76
2022/01/10 12:47:37;;;;;;;12.07;6.70;;;11.30;99.90;;;;;;4977248;28;20450;-80
2022/01/10 12:50:09;;;;;;;14.17;6.07;;;10.40;99.90;;;;;;4979127;28;20560;-78